Time;durP1;ratioP1;P1;durP2;ratioP2;P2;SDS_P1;SDS_P2;PMS_P1;PMS_P2;Temp;Humidity;BMP_temperature;BMP_pressure;BME280_temperature;BME280_humidity;BME280_pressure;Samples;Min_cycle;Max_cycle;Signal;HPM_P1;HPM_P2
2022/07/16 00:03:05;;;;;;;3.22;1.50;;;;;;;27.94;51.59;101361.36;1697901;83;21038;-49
2022/07/16 00:05:32;;;;;;;2.65;1.55;;;;;;;27.91;51.70;101363.80;1697606;84;21034;-51
2022/07/16 00:07:59;;;;;;;4.65;1.65;;;;;;;27.89;51.80;101364.91;1731424;81;21023;-49
2022/07/16 00:10:26;;;;;;;3.70;1.40;;;;;;;27.86;51.85;101370.53;1732426;81;21031;-48
2022/07/16 00:12:55;;;;;;;3.75;1.35;;;;;;;27.83;51.92;101369.44;1742389;81;21500;-50
2022/07/16 00:15:23;;;;;;;6.55;1.80;;;;;;;27.82;51.94;101359.73;1734561;81;21038;-50
2022/07/16 00:19:15;;;;;;;2.45;1.40;;;;;;;27.80;51.98;101361.69;1699100;84;21495;-55
2022/07/16 00:20:20;;;;;;;4.47;1.62;;;;;;;27.78;51.98;101364.98;1731827;81;21538;-51
2022/07/16 00:22:46;;;;;;;2.70;1.47;;;;;;;27.76;51.92;101361.59;1733841;81;21464;-52
2022/07/16 00:25:14;;;;;;;3.55;1.57;;;;;;;27.75;51.99;101362.55;1734032;82;21035;-50
2022/07/16 00:27:41;;;;;;;5.60;2.02;;;;;;;27.72;52.01;101353.46;1721666;81;21499;-50
2022/07/16 00:30:10;;;;;;;4.05;1.70;;;;;;;27.70;51.95;101356.75;1734859;81;21058;-51
2022/07/16 00:32:38;;;;;;;6.42;1.50;;;;;;;27.67;51.93;101357.84;1732500;81;21026;-50
2022/07/16 00:35:06;;;;;;;3.85;1.45;;;;;;;27.66;52.00;101348.59;1733067;81;21074;-49
2022/07/16 00:37:33;;;;;;;3.40;1.37;;;;;;;27.66;52.01;101347.26;1734023;82;21559;-49
2022/07/16 00:39:59;;;;;;;3.87;1.40;;;;;;;27.64;52.03;101338.52;1734243;81;21027;-50
2022/07/16 00:42:26;;;;;;;4.05;1.52;;;;;;;27.61;52.11;101344.14;1735011;81;21031;-49
2022/07/16 00:44:53;;;;;;;3.55;1.27;;;;;;;27.62;52.12;101345.81;1718736;81;21031;-50
2022/07/16 00:47:19;;;;;;;1.27;1.17;;;;;;;27.61;52.23;101350.82;1737015;81;21590;-51
2022/07/16 00:49:46;;;;;;;5.10;1.67;;;;;;;27.60;52.31;101347.77;1701392;84;21032;-49
2022/07/16 00:52:13;;;;;;;3.77;1.17;;;;;;;27.59;52.43;101348.28;1701011;84;21034;-51
2022/07/16 00:54:39;;;;;;;4.37;1.42;;;;;;;27.58;52.57;101356.41;1699589;84;21026;-50
2022/07/16 00:57:07;;;;;;;2.10;1.32;;;;;;;27.57;52.76;101355.59;1697194;84;21026;-52
2022/07/16 00:59:34;;;;;;;1.95;1.20;;;;;;;27.47;53.22;101360.48;1697011;84;21033;-53
2022/07/16 01:02:00;;;;;;;2.25;1.32;;;;;;;27.55;53.13;101356.69;1697920;83;21080;-49
2022/07/16 01:04:27;;;;;;;4.20;1.75;;;;;;;27.39;53.56;101354.41;1697413;82;21002;-48
2022/07/16 01:06:54;;;;;;;2.30;1.50;;;;;;;27.54;53.24;101350.48;1698943;84;21022;-52
2022/07/16 01:09:22;;;;;;;3.05;1.37;;;;;;;27.56;53.15;101347.67;1748306;80;21519;-49
2022/07/16 01:11:49;;;;;;;4.12;1.47;;;;;;;27.56;53.19;101343.66;1734504;81;21050;-53
2022/07/16 01:14:15;;;;;;;3.22;1.35;;;;;;;27.56;53.32;101345.00;1730232;82;21098;-50
2022/07/16 01:16:44;;;;;;;3.42;1.30;;;;;;;27.55;53.48;101344.66;1734466;81;21034;-49
2022/07/16 01:19:11;;;;;;;1.98;1.30;;;;;;;27.54;53.71;101346.47;1734736;81;21027;-54
2022/07/16 01:21:40;;;;;;;3.47;1.45;;;;;;;27.54;53.83;101348.28;1731804;81;21019;-50
2022/07/16 01:24:06;;;;;;;2.80;1.40;;;;;;;27.54;54.06;101350.95;1731995;81;20975;-49
2022/07/16 01:26:33;;;;;;;3.05;1.50;;;;;;;27.53;54.23;101351.95;1721430;82;21043;-49
2022/07/16 01:29:00;;;;;;;3.42;1.55;;;;;;;27.52;54.38;101352.91;1733813;81;21078;-50
2022/07/16 01:31:27;;;;;;;1.22;1.10;;;;;;;27.52;54.58;101346.23;1721860;81;21035;-51
2022/07/16 01:36:39;;;;;;;2.42;1.67;;;;;;;27.51;54.61;101351.23;1701517;83;21049;-49
2022/07/16 01:39:06;;;;;;;2.70;1.07;;;;;;;27.49;54.73;101347.84;1734285;81;21499;-51
2022/07/16 01:41:33;;;;;;;4.35;1.70;;;;;;;27.48;54.75;101354.14;1734208;81;21003;-49
2022/07/16 01:44:01;;;;;;;3.22;1.37;;;;;;;27.47;54.66;101359.14;1731460;81;21019;-51
2022/07/16 01:46:27;;;;;;;1.67;1.22;;;;;;;27.47;54.58;101352.46;1731516;81;21077;-49
2022/07/16 01:48:54;;;;;;;5.28;1.62;;;;;;;27.47;54.48;101356.47;1731009;81;21107;-49
2022/07/16 01:51:21;;;;;;;5.03;1.85;;;;;;;27.47;54.31;101353.80;1731279;81;21551;-48
2022/07/16 01:53:48;;;;;;;3.83;1.35;;;;;;;27.45;54.17;101354.41;1732094;81;21031;-54
2022/07/16 01:56:15;;;;;;;1.95;1.55;;;;;;;27.44;54.11;101360.72;1734806;81;21062;-50
2022/07/16 01:58:42;;;;;;;1.35;1.20;;;;;;;27.43;54.11;101359.03;1734392;81;21079;-49
2022/07/16 02:01:09;;;;;;;1.50;1.40;;;;;;;27.41;54.08;101360.98;1731180;82;21101;-50
2022/07/16 02:03:36;;;;;;;2.47;1.57;;;;;;;27.39;54.04;101360.61;1692796;84;21026;-49
2022/07/16 02:06:03;;;;;;;1.98;1.52;;;;;;;27.37;53.96;101361.23;1697692;84;21470;-55
2022/07/16 02:08:30;;;;;;;3.65;1.75;;;;;;;27.37;53.95;101363.90;1697586;84;21018;-50
2022/07/16 02:10:58;;;;;;;3.02;1.60;;;;;;;27.37;53.99;101374.59;1706757;84;21033;-53
2022/07/16 02:13:25;;;;;;;2.37;1.57;;;;;;;27.36;53.95;101374.24;1730870;82;21618;-50
2022/07/16 02:15:52;;;;;;;1.60;1.50;;;;;;;27.37;53.96;101373.73;1692886;84;20994;-49
2022/07/16 02:18:19;;;;;;;2.22;1.40;;;;;;;27.36;54.01;101376.92;1695541;83;20995;-48
2022/07/16 02:20:47;;;;;;;4.35;1.70;;;;;;;27.37;53.98;101393.30;1696484;84;21042;-48
2022/07/16 02:23:14;;;;;;;2.25;1.60;;;;;;;27.37;53.96;101395.97;1696957;84;21056;-54
2022/07/16 02:25:41;;;;;;;1.98;1.75;;;;;;;27.38;53.93;101397.69;1697780;83;21042;-51
2022/07/16 02:28:07;;;;;;;3.27;1.75;;;;;;;27.37;53.84;101398.64;1695754;83;21026;-48
2022/07/16 02:30:41;;;;;;;2.05;1.82;;;;;;;27.36;52.70;101399.63;1732720;81;21031;-50
2022/07/16 02:33:08;;;;;;;2.75;2.42;;;;;;;27.35;51.81;101405.94;1698921;84;21102;-49
2022/07/16 02:35:35;;;;;;;3.72;2.10;;;;;;;27.35;51.28;101397.92;1645090;86;21011;-50
2022/07/16 02:38:02;;;;;;;3.47;1.80;;;;;;;27.35;50.46;101399.25;1690052;84;21559;-55
2022/07/16 02:40:33;;;;;;;2.08;1.80;;;;;;;27.35;49.86;101399.73;1688192;84;21050;-50
2022/07/16 02:43:00;;;;;;;4.67;2.27;;;;;;;27.33;49.50;101397.16;1641940;86;21495;-48
2022/07/16 02:45:27;;;;;;;2.95;1.75;;;;;;;27.33;49.28;101399.83;1649083;86;21523;-48
2022/07/16 02:47:54;;;;;;;4.22;1.75;;;;;;;27.32;49.15;101398.16;1640117;86;21004;-48
2022/07/16 02:50:21;;;;;;;2.15;1.95;;;;;;;27.30;48.98;101400.10;1687047;84;21078;-51
2022/07/16 02:52:49;;;;;;;2.15;1.95;;;;;;;27.29;48.96;101395.72;1644824;86;21044;-51
2022/07/16 02:55:16;;;;;;;2.25;1.90;;;;;;;27.26;48.92;101394.64;1689675;84;21054;-50
2022/07/16 02:57:43;;;;;;;2.85;2.00;;;;;;;27.23;48.89;101397.55;1687856;84;21071;-49
2022/07/16 03:00:13;;;;;;;4.30;1.85;;;;;;;27.22;48.82;101402.52;1687994;84;21043;-48
2022/07/16 03:02:40;;;;;;;3.62;1.75;;;;;;;27.18;48.77;101409.08;1687856;84;21122;-50
2022/07/16 03:05:08;;;;;;;4.35;2.00;;;;;;;27.16;48.62;101410.20;1642571;86;21066;-48
2022/07/16 03:07:36;;;;;;;4.85;2.17;;;;;;;27.15;48.85;101413.35;1644635;86;21067;-49
2022/07/16 03:10:05;;;;;;;2.98;2.05;;;;;;;27.13;48.94;101413.97;1693379;84;21028;-52
2022/07/16 03:12:32;;;;;;;3.10;1.77;;;;;;;27.11;49.07;101415.91;1647407;86;21523;-52
2022/07/16 03:15:02;;;;;;;4.92;2.15;;;;;;;27.11;49.23;101415.91;1691856;84;21055;-50
2022/07/16 03:17:30;;;;;;;2.77;2.02;;;;;;;27.09;49.46;101409.84;1690817;84;21023;-50
2022/07/16 03:19:56;;;;;;;4.15;2.20;;;;;;;27.09;49.68;101416.52;1645584;86;21070;-51
2022/07/16 03:22:23;;;;;;;3.58;2.20;;;;;;;27.09;49.95;101423.20;1642122;86;21091;-49
2022/07/16 03:24:51;;;;;;;1.77;1.67;;;;;;;27.07;50.23;101423.81;1648480;85;21043;-51
2022/07/16 03:27:19;;;;;;;5.15;2.98;;;;;;;27.08;50.44;101423.33;1640565;86;21091;-50
2022/07/16 03:29:46;;;;;;;2.50;2.22;;;;;;;27.03;50.80;101421.02;1649254;86;22166;-50
2022/07/16 03:32:13;;;;;;;4.67;2.35;;;;;;;27.08;50.95;101431.34;1736573;81;21070;-49
2022/07/16 03:34:40;;;;;;;2.83;2.37;;;;;;;27.10;51.05;101431.56;1733316;81;21050;-50
2022/07/16 03:37:07;;;;;;;3.00;2.05;;;;;;;27.12;51.18;101432.80;1733433;81;21069;-49
2022/07/16 03:39:34;;;;;;;2.95;2.52;;;;;;;27.13;51.25;101440.68;1734535;81;21003;-49
2022/07/16 03:42:00;;;;;;;4.70;2.30;;;;;;;27.14;51.35;101439.69;1700599;84;21011;-51
2022/07/16 03:44:27;;;;;;;2.80;2.00;;;;;;;27.16;51.48;101441.75;1697178;84;21045;-50
2022/07/16 03:46:54;;;;;;;3.02;2.35;;;;;;;27.18;51.56;101443.81;1700025;84;21560;-49
2022/07/16 03:49:21;;;;;;;3.27;2.85;;;;;;;27.18;51.82;101447.83;1686787;84;21515;-50
2022/07/16 03:51:48;;;;;;;2.55;2.35;;;;;;;27.28;52.67;101446.14;1698632;84;21002;-49
2022/07/16 03:54:14;;;;;;;3.30;2.40;;;;;;;27.62;52.58;101438.06;1699768;84;21013;-50
2022/07/16 03:56:41;;;;;;;3.12;2.10;;;;;;;28.17;51.49;101434.70;1701067;84;21057;-51
2022/07/16 03:59:10;;;;;;;3.37;2.27;;;;;;;28.83;49.91;101433.45;1697183;84;21502;-48
2022/07/16 04:01:37;;;;;;;4.60;2.30;;;;;;;29.55;48.09;101440.84;1697916;83;21030;-51
2022/07/16 04:04:04;;;;;;;3.27;2.40;;;;;;;30.26;46.23;101443.66;1697749;83;21049;-50
2022/07/16 04:06:31;;;;;;;3.83;2.55;;;;;;;30.85;44.64;101445.30;1697707;83;21038;-49
2022/07/16 04:08:59;;;;;;;3.85;2.40;;;;;;;31.22;43.59;101442.09;1697668;84;21038;-50
2022/07/16 04:11:26;;;;;;;3.42;2.67;;;;;;;31.46;42.91;101441.55;1701040;83;21479;-50
2022/07/16 04:13:54;;;;;;;3.75;2.45;;;;;;;31.58;42.23;101437.63;1730202;82;21011;-53
2022/07/16 04:16:20;;;;;;;5.95;2.40;;;;;;;31.55;41.87;101441.47;1729657;81;21031;-50
2022/07/16 04:18:48;;;;;;;3.95;2.58;;;;;;;31.42;41.85;101442.35;1721596;81;21037;-49
2022/07/16 04:21:15;;;;;;;3.98;2.30;;;;;;;31.20;42.10;101449.46;1700565;84;21514;-51
2022/07/16 04:23:42;;;;;;;3.58;2.60;;;;;;;30.95;42.34;101454.16;1698040;84;21093;-51
2022/07/16 04:26:09;;;;;;;3.92;2.70;;;;;;;30.69;42.65;101455.75;1697706;83;20971;-51
2022/07/16 04:28:35;;;;;;;2.60;2.40;;;;;;;30.40;43.07;101455.33;1688695;84;21042;-51
2022/07/16 04:31:02;;;;;;;2.70;2.08;;;;;;;30.16;43.71;101460.28;1734741;81;20971;-51
2022/07/16 04:33:29;;;;;;;5.33;2.70;;;;;;;29.93;44.26;101462.02;1732576;81;21067;-49
2022/07/16 04:35:56;;;;;;;2.75;2.55;;;;;;;29.72;44.61;101465.69;1731142;81;21451;-50
2022/07/16 04:38:23;;;;;;;2.77;2.40;;;;;;;29.53;45.21;101466.12;1731997;81;20999;-49
2022/07/16 04:40:49;;;;;;;4.40;2.45;;;;;;;29.34;45.74;101463.38;1732213;81;20992;-50
2022/07/16 04:43:16;;;;;;;2.95;2.50;;;;;;;29.18;46.38;101461.20;1731494;81;21542;-51
2022/07/16 04:45:43;;;;;;;3.83;2.87;;;;;;;29.05;46.97;101469.09;1734829;81;21038;-50
2022/07/16 04:48:09;;;;;;;10.70;3.50;;;;;;;28.92;47.44;101464.81;1740349;82;21066;-50
2022/07/16 04:50:36;;;;;;;4.58;2.65;;;;;;;28.84;47.85;101464.63;1737872;81;21019;-49
2022/07/16 04:53:03;;;;;;;4.33;3.45;;;;;;;28.76;48.19;101464.45;1731004;81;21016;-49
2022/07/16 04:55:30;;;;;;;4.35;3.60;;;;;;;28.71;48.49;101473.84;1731770;81;21034;-50
2022/07/16 04:57:56;;;;;;;4.10;3.35;;;;;;;28.67;48.83;101471.07;1732651;81;20999;-51
2022/07/16 05:00:23;;;;;;;5.05;3.00;;;;;;;28.64;48.84;101475.38;1729821;81;20999;-49
2022/07/16 05:02:59;;;;;;;3.45;3.12;;;;;;;28.62;48.85;101474.66;1732617;81;21058;-50
2022/07/16 05:05:30;;;;;;;11.43;3.37;;;;;;;28.59;48.90;101474.42;1725079;81;20979;-50
2022/07/16 05:07:56;;;;;;;3.98;2.77;;;;;;;28.56;49.08;101477.37;1691867;84;21003;-51
2022/07/16 05:10:25;;;;;;;4.97;2.87;;;;;;;28.54;49.24;101484.63;1736817;81;21042;-50
2022/07/16 05:12:52;;;;;;;6.53;3.17;;;;;;;28.53;49.41;101495.00;1727102;82;21487;-49
2022/07/16 05:15:20;;;;;;;2.65;2.45;;;;;;;28.53;49.54;101500.35;1733134;81;21066;-52
2022/07/16 05:17:47;;;;;;;3.45;3.15;;;;;;;28.52;49.38;101503.17;1729434;82;21053;-49
2022/07/16 05:20:15;;;;;;;5.12;3.00;;;;;;;28.52;49.51;101496.47;1733478;81;21085;-50
2022/07/16 05:22:41;;;;;;;2.80;2.60;;;;;;;28.53;49.43;101499.49;1732021;81;21463;-49
2022/07/16 05:25:11;;;;;;;6.33;3.37;;;;;;;28.54;49.46;101500.69;1730331;81;21050;-51
2022/07/16 05:27:38;;;;;;;4.60;2.85;;;;;;;28.59;49.56;101504.36;1730566;81;21013;-49
2022/07/16 05:30:07;;;;;;;2.95;2.75;;;;;;;28.64;49.52;101498.98;1727206;81;21086;-50
2022/07/16 05:32:36;;;;;;;7.00;3.33;;;;;;;28.72;49.42;101502.34;1731574;81;21038;-50
2022/07/16 05:35:05;;;;;;;3.35;2.90;;;;;;;28.81;49.23;101498.37;1733725;81;21034;-49
2022/07/16 05:37:32;;;;;;;5.47;3.08;;;;;;;28.92;48.82;101502.80;1733537;81;21003;-49
2022/07/16 05:39:59;;;;;;;3.15;2.95;;;;;;;29.02;48.66;101498.86;1732328;81;21042;-50
2022/07/16 05:42:26;;;;;;;5.97;3.45;;;;;;;29.10;48.30;101496.35;1731282;81;21050;-52
2022/07/16 05:44:54;;;;;;;3.67;3.37;;;;;;;29.18;48.21;101493.36;1732544;81;21648;-52
2022/07/16 05:47:21;;;;;;;7.25;3.67;;;;;;;29.24;48.10;101490.66;1732942;82;20974;-51
2022/07/16 05:49:47;;;;;;;5.03;3.55;;;;;;;29.30;47.92;101495.47;1733142;81;21099;-54
2022/07/16 05:52:15;;;;;;;3.67;3.35;;;;;;;29.38;48.08;101502.34;1731797;81;21053;-50
2022/07/16 05:54:41;;;;;;;4.65;4.03;;;;;;;29.46;48.14;101496.66;1731067;81;21052;-49
2022/07/16 05:57:09;;;;;;;3.98;3.58;;;;;;;29.53;47.82;101501.81;1730463;81;21595;-51
2022/07/16 05:59:36;;;;;;;4.25;3.75;;;;;;;29.59;47.44;101501.78;1730065;81;21075;-52
2022/07/16 06:02:03;;;;;;;7.00;4.55;;;;;;;29.60;47.35;101501.64;1731017;81;21034;-49
2022/07/16 06:04:30;;;;;;;5.95;4.25;;;;;;;29.61;47.57;101505.17;1732375;81;21003;-50
2022/07/16 06:06:57;;;;;;;6.67;4.47;;;;;;;29.60;47.55;101504.31;1700613;82;21031;-48
2022/07/16 06:09:24;;;;;;;5.40;4.90;;;;;;;29.62;47.21;101506.85;1699872;84;21111;-52
2022/07/16 06:11:52;;;;;;;6.10;4.78;;;;;;;29.62;47.12;101509.53;1697555;83;21038;-49
2022/07/16 06:14:19;;;;;;;6.55;4.65;;;;;;;29.63;46.96;101512.59;1699189;83;20990;-49
2022/07/16 06:16:45;;;;;;;5.12;4.62;;;;;;;29.63;46.92;101507.22;1700915;84;21493;-50
2022/07/16 06:19:12;;;;;;;4.60;4.20;;;;;;;29.60;46.96;101508.83;1700745;84;21018;-53
2022/07/16 06:21:39;;;;;;;8.13;4.47;;;;;;;29.58;46.99;101506.29;1740079;81;21522;-54
2022/07/16 06:24:06;;;;;;;5.85;4.87;;;;;;;29.58;46.88;101505.44;1732912;81;21507;-51
2022/07/16 06:26:32;;;;;;;5.60;4.12;;;;;;;29.55;46.66;101505.72;1733627;81;21011;-49
2022/07/16 06:28:59;;;;;;;6.97;4.15;;;;;;;29.51;46.54;101513.69;1732770;81;21070;-50
2022/07/16 06:31:26;;;;;;;4.87;3.70;;;;;;;29.47;46.43;101520.31;1733707;81;20991;-52
2022/07/16 06:33:53;;;;;;;3.77;3.47;;;;;;;29.41;46.31;101518.14;1700383;84;21034;-48
2022/07/16 06:36:20;;;;;;;5.20;4.00;;;;;;;29.35;46.24;101522.70;1700963;84;21467;-50
2022/07/16 06:38:47;;;;;;;9.28;3.98;;;;;;;29.29;46.24;101523.25;1699045;84;21006;-50
2022/07/16 06:41:17;;;;;;;4.42;3.90;;;;;;;29.24;46.23;101522.82;1699239;83;20994;-50
2022/07/16 06:43:44;;;;;;;6.95;4.35;;;;;;;29.19;46.32;101523.70;1739074;82;21502;-52
2022/07/16 06:46:11;;;;;;;3.72;3.42;;;;;;;29.13;46.35;101520.19;1732320;80;21022;-48
2022/07/16 06:48:38;;;;;;;6.53;3.52;;;;;;;29.08;46.51;101519.76;1742314;80;21006;-49
2022/07/16 06:51:07;;;;;;;4.55;3.60;;;;;;;29.06;46.54;101520.38;1742426;80;21497;-51
2022/07/16 06:53:37;;;;;;;4.95;3.85;;;;;;;29.05;46.55;101517.33;1736208;80;21058;-49
2022/07/16 06:56:06;;;;;;;4.87;3.52;;;;;;;29.03;46.64;101519.30;1706804;84;21051;-49
2022/07/16 06:58:34;;;;;;;6.37;4.30;;;;;;;29.01;46.69;101521.26;1734699;81;21031;-49
2022/07/16 07:01:01;;;;;;;5.72;4.22;;;;;;;28.98;46.82;101525.91;1742757;80;21210;-50
2022/07/16 07:03:29;;;;;;;4.10;3.70;;;;;;;28.95;46.93;101531.51;1739983;80;21039;-50
2022/07/16 07:05:56;;;;;;;4.00;3.70;;;;;;;28.92;47.12;101526.44;1734965;80;21035;-51
2022/07/16 07:08:23;;;;;;;4.40;4.05;;;;;;;28.91;47.38;101525.23;1736218;80;21035;-49
2022/07/16 07:10:51;;;;;;;4.65;4.22;;;;;;;28.89;47.68;101521.33;1741857;81;21534;-51
2022/07/16 07:13:18;;;;;;;4.83;4.28;;;;;;;28.91;47.79;101527.40;1732130;81;21542;-49
2022/07/16 07:15:45;;;;;;;5.03;4.28;;;;;;;28.92;47.88;101523.75;1735306;80;20956;-50
2022/07/16 07:18:11;;;;;;;5.58;4.87;;;;;;;28.96;47.99;101522.51;1753399;80;21507;-52
2022/07/16 07:20:38;;;;;;;7.00;5.20;;;;;;;29.00;47.99;101525.76;1733607;80;21013;-54
2022/07/16 07:23:05;;;;;;;8.20;5.80;;;;;;;29.06;48.01;101527.08;1731404;80;21067;-51
2022/07/16 07:25:31;;;;;;;5.30;4.90;;;;;;;29.10;47.97;101525.31;1732716;80;21058;-53
2022/07/16 07:27:58;;;;;;;5.37;4.45;;;;;;;29.16;47.84;101519.45;1717926;82;21039;-54
2022/07/16 07:30:26;;;;;;;6.35;5.67;;;;;;;29.20;47.70;101518.23;1734336;81;21039;-50
2022/07/16 07:32:53;;;;;;;8.10;5.67;;;;;;;29.26;47.54;101523.53;1729463;80;21039;-48
2022/07/16 07:35:19;;;;;;;8.45;5.90;;;;;;;29.31;47.38;101526.64;1697804;84;21015;-52
2022/07/16 07:37:46;;;;;;;7.67;5.80;;;;;;;29.36;47.28;101532.47;1701294;84;21018;-49
2022/07/16 07:40:14;;;;;;;7.20;6.17;;;;;;;29.40;47.20;101525.84;1696694;84;21039;-51
2022/07/16 07:42:40;;;;;;;6.45;5.85;;;;;;;29.41;47.14;101527.52;1705367;84;21018;-49
2022/07/16 07:45:10;;;;;;;7.45;5.67;;;;;;;29.46;47.21;101528.84;1704085;84;21019;-50
2022/07/16 07:47:39;;;;;;;8.48;6.35;;;;;;;29.50;47.29;101532.09;1737254;81;21008;-51
2022/07/16 07:50:09;;;;;;;7.37;6.08;;;;;;;29.53;47.22;101533.17;1732008;80;20987;-49
2022/07/16 07:52:35;;;;;;;6.10;5.50;;;;;;;29.59;47.16;101528.59;1707099;84;21022;-52
2022/07/16 07:55:03;;;;;;;6.87;6.17;;;;;;;29.66;47.08;101529.73;1692201;84;21037;-49
2022/07/16 07:57:32;;;;;;;8.70;6.70;;;;;;;29.72;46.82;101526.50;1702560;84;21010;-49
2022/07/16 07:59:58;;;;;;;7.37;6.20;;;;;;;29.80;46.57;101531.23;1731082;80;21046;-54
2022/07/16 08:02:25;;;;;;;7.95;7.20;;;;;;;29.86;46.37;101531.53;1706693;84;21078;-51
2022/07/16 08:04:53;;;;;;;11.03;7.12;;;;;;;29.93;46.39;101531.80;1691393;84;21057;-49
2022/07/16 08:07:20;;;;;;;6.90;6.20;;;;;;;30.01;46.05;101529.27;1743817;80;21039;-50
2022/07/16 08:09:46;;;;;;;7.65;6.70;;;;;;;30.08;45.79;101531.27;1740828;80;21049;-49
2022/07/16 08:12:13;;;;;;;6.90;6.10;;;;;;;30.14;45.49;101532.05;1727425;81;20991;-53
2022/07/16 08:14:41;;;;;;;7.62;5.97;;;;;;;30.20;45.32;101538.20;1735154;81;21054;-55
2022/07/16 08:17:08;;;;;;;6.37;5.78;;;;;;;30.26;44.99;101536.78;1704009;84;21042;-55
2022/07/16 08:19:35;;;;;;;6.67;5.15;;;;;;;30.31;44.65;101534.08;1740472;80;21019;-51
2022/07/16 08:22:02;;;;;;;5.70;5.10;;;;;;;30.35;44.39;101539.52;1741279;80;21070;-49
2022/07/16 08:27:15;;;;;;;5.92;5.42;;;;;;;30.44;44.19;101532.42;1748413;80;21019;-51
2022/07/16 08:29:42;;;;;;;4.75;4.45;;;;;;;30.49;43.97;101540.42;1731472;80;21023;-50
2022/07/16 08:32:09;;;;;;;5.50;5.00;;;;;;;30.52;43.84;101534.75;1741789;80;21082;-50
2022/07/16 08:34:36;;;;;;;5.92;5.22;;;;;;;30.57;43.74;101526.75;1731741;80;21023;-50
2022/07/16 08:37:09;;;;;;;5.55;4.70;;;;;;;30.60;43.56;101527.83;1700485;84;21502;-48
2022/07/16 08:39:45;;;;;;;5.05;4.65;;;;;;;30.62;43.34;101530.73;1702130;83;21058;-50
2022/07/16 08:42:12;;;;;;;5.37;4.90;;;;;;;30.62;43.31;101530.73;1645486;85;21499;-50
2022/07/16 08:44:41;;;;;;;6.78;4.78;;;;;;;30.59;43.49;101531.48;1642180;86;21095;-51
2022/07/16 08:47:09;;;;;;;4.95;4.53;;;;;;;30.61;43.48;101529.02;1660807;85;21045;-50
2022/07/16 08:49:38;;;;;;;5.37;4.60;;;;;;;30.67;43.44;101532.96;1641291;85;21479;-52
2022/07/16 08:52:07;;;;;;;4.90;4.55;;;;;;;30.71;43.30;101537.91;1641450;85;21114;-50
2022/07/16 08:54:33;;;;;;;5.10;4.70;;;;;;;30.77;42.85;101536.51;1644591;85;21557;-50
2022/07/16 08:57:00;;;;;;;5.33;4.87;;;;;;;30.79;42.84;101534.52;1628334;85;21025;-49
2022/07/16 08:59:27;;;;;;;5.75;5.20;;;;;;;30.83;42.93;101533.23;1644815;85;21050;-49
2022/07/16 09:01:54;;;;;;;4.90;4.50;;;;;;;30.87;42.73;101529.30;1641521;86;21557;-50
2022/07/16 09:04:21;;;;;;;5.25;4.72;;;;;;;30.89;42.37;101531.34;1652844;84;21125;-55
2022/07/16 09:06:49;;;;;;;5.12;4.30;;;;;;;30.93;42.24;101532.75;1639000;85;21619;-53
2022/07/16 09:09:17;;;;;;;5.33;4.83;;;;;;;30.92;42.06;101531.89;1639067;85;21026;-49
2022/07/16 09:11:46;;;;;;;5.83;4.55;;;;;;;30.91;42.32;101532.05;1642006;85;21109;-50
2022/07/16 09:14:16;;;;;;;5.75;4.50;;;;;;;30.92;42.38;101527.01;1648245;85;21042;-49
2022/07/16 09:16:47;;;;;;;5.13;4.63;;;;;;;30.95;42.34;101531.62;1643687;85;21577;-49
2022/07/16 09:19:20;;;;;;;4.67;4.28;;;;;;;30.98;42.27;101534.48;1648543;85;21022;-52
2022/07/16 09:22:08;;;;;;;5.33;4.40;;;;;;;31.01;42.22;101533.72;1647418;85;21159;-51
2022/07/16 09:24:40;;;;;;;4.40;4.00;;;;;;;31.05;42.18;101531.58;1647771;85;20990;-51
2022/07/16 09:27:10;;;;;;;4.83;4.28;;;;;;;31.10;41.80;101530.62;1634341;85;21017;-51
2022/07/16 09:29:54;;;;;;;5.37;4.90;;;;;;;31.13;41.83;101535.23;1649027;87;21029;-53
2022/07/16 09:32:36;;;;;;;6.90;4.67;;;;;;;31.17;41.66;101539.81;1604916;87;21602;-49
2022/07/16 09:35:14;;;;;;;9.25;5.03;;;;;;;31.20;41.52;101536.84;1604901;87;21062;-52
2022/07/16 09:37:52;;;;;;;5.67;5.17;;;;;;;31.23;41.56;101532.50;1615492;87;21038;-48
2022/07/16 09:40:44;;;;;;;5.80;4.95;;;;;;;31.27;41.28;101531.20;1614230;87;21070;-49
2022/07/16 09:43:17;;;;;;;5.72;5.22;;;;;;;31.31;41.32;101523.19;1598350;89;21089;-55
2022/07/16 09:45:48;;;;;;;7.17;6.53;;;;;;;31.35;41.17;101529.14;1666699;82;21086;-50
2022/07/16 09:48:26;;;;;;;8.08;6.47;;;;;;;31.35;41.01;101519.20;1660003;85;21049;-50
2022/07/16 09:50:56;;;;;;;7.20;6.28;;;;;;;31.37;41.08;101517.22;1638476;86;21107;-47
2022/07/16 09:53:25;;;;;;;8.65;7.03;;;;;;;31.39;41.41;101523.33;1635414;87;21102;-48
2022/07/16 09:56:06;;;;;;;7.17;6.00;;;;;;;31.42;41.18;101512.28;1635427;86;21067;-47
2022/07/16 09:58:33;;;;;;;;;;;;;;;31.45;41.43;101513.84;1641338;86;21036;-50
2022/07/16 10:01:01;;;;;;;7.22;6.60;;;;;;;31.46;41.48;101509.64;1635112;86;20163;-53
2022/07/16 10:03:28;;;;;;;5.97;5.55;;;;;;;31.48;41.40;101517.06;1635408;87;21583;-50
2022/07/16 10:05:56;;;;;;;6.60;5.90;;;;;;;31.48;41.47;101518.90;1638131;86;21091;-52
2022/07/16 10:08:23;;;;;;;10.08;6.40;;;;;;;31.48;41.42;101514.38;1633697;87;21090;-53
2022/07/16 10:10:51;;;;;;;6.65;5.97;;;;;;;31.49;41.38;101518.74;1623726;87;21047;-53
2022/07/16 10:13:25;;;;;;;7.62;6.45;;;;;;;31.48;41.40;101515.72;1624788;87;21571;-48
2022/07/16 10:15:52;;;;;;;5.95;5.45;;;;;;;31.48;41.16;101516.20;1625960;86;21081;-51
2022/07/16 10:18:42;;;;;;;6.62;5.78;;;;;;;31.47;40.91;101516.70;1625572;87;21098;-50
2022/07/16 10:21:20;;;;;;;6.20;5.20;;;;;;;31.47;40.81;101517.22;1632054;86;21034;-55
2022/07/16 10:23:50;;;;;;;5.25;4.83;;;;;;;31.46;40.80;101521.75;1597113;89;21159;-51
2022/07/16 10:26:21;;;;;;;6.58;5.50;;;;;;;31.43;41.13;101513.96;1597537;88;21073;-53
2022/07/16 10:31:37;;;;;;;5.53;5.03;;;;;;;31.38;41.24;101513.55;1566054;91;21103;-50
2022/07/16 10:34:32;;;;;;;5.22;4.83;;;;;;;31.37;41.28;101506.45;1563391;90;21103;-48
2022/07/16 10:36:59;;;;;;;5.37;4.80;;;;;;;31.33;41.64;101505.06;1563816;91;21120;-50
2022/07/16 10:39:27;;;;;;;5.58;5.08;;;;;;;31.23;42.04;101506.95;1560014;90;21575;-50
2022/07/16 10:41:59;;;;;;;5.60;5.10;;;;;;;31.13;42.41;101514.22;1556626;91;21139;-49
2022/07/16 10:44:45;;;;;;;5.37;4.87;;;;;;;31.02;42.51;101511.20;1561085;91;21044;-51
2022/07/16 10:47:11;;;;;;;5.15;4.75;;;;;;;30.92;42.87;101509.05;1562351;90;21579;-51
2022/07/16 10:49:39;;;;;;;5.45;4.78;;;;;;;30.84;43.41;101506.22;1563441;90;21048;-55
2022/07/16 10:52:09;;;;;;;5.72;4.28;;;;;;;30.79;43.79;101502.28;1562284;90;21108;-51
2022/07/16 10:54:39;;;;;;;4.22;3.87;;;;;;;30.79;44.10;101508.47;1574497;89;21554;-49
2022/07/16 10:59:43;;;;;;;4.92;4.42;;;;;;;30.82;44.18;101501.48;1511012;93;21590;-50
2022/07/16 11:02:11;;;;;;;4.35;3.87;;;;;;;30.88;44.37;101498.73;1515376;93;21534;-51
2022/07/16 11:04:45;;;;;;;4.33;3.95;;;;;;;30.92;44.77;101491.58;1515306;93;21717;-51
2022/07/16 11:07:18;;;;;;;4.08;3.77;;;;;;;30.97;44.86;101492.49;1515141;93;21146;-49
2022/07/16 11:09:49;;;;;;;4.72;3.95;;;;;;;30.99;44.92;101490.50;1514931;93;21098;-51
2022/07/16 11:12:21;;;;;;;4.58;4.17;;;;;;;30.93;45.03;101489.26;1515212;93;21193;-51
2022/07/16 11:14:52;;;;;;;4.80;4.40;;;;;;;30.90;45.25;101492.72;1511567;95;21063;-51
2022/07/16 11:17:22;;;;;;;4.33;3.92;;;;;;;30.85;45.72;101496.36;1518643;92;21111;-52
2022/07/16 11:19:55;;;;;;;5.08;4.05;;;;;;;30.82;46.16;101499.28;1522708;92;21082;-53
2022/07/16 11:22:24;;;;;;;5.33;4.00;;;;;;;30.84;46.48;101491.44;1434197;98;21131;-50
2022/07/16 11:24:53;;;;;;;4.65;4.30;;;;;;;30.90;46.45;101495.40;1465692;98;21103;-51
2022/07/16 11:30:03;;;;;;;3.92;3.60;;;;;;;31.06;46.26;101494.28;1424447;100;21147;-52
2022/07/16 11:32:31;;;;;;;5.47;4.60;;;;;;;31.14;46.24;101501.14;1425437;100;21082;-51
2022/07/16 11:35:05;;;;;;;6.20;4.20;;;;;;;31.19;46.38;101493.45;1453288;97;21128;-50
2022/07/16 11:37:54;;;;;;;5.72;4.22;;;;;;;31.22;46.40;101489.14;1472525;97;21097;-49
2022/07/16 11:40:35;;;;;;;4.08;3.77;;;;;;;31.26;46.35;101489.20;1449759;98;21128;-49
2022/07/16 11:43:02;;;;;;;4.37;4.07;;;;;;;31.30;46.40;101485.21;1426821;100;21121;-55
2022/07/16 11:45:46;;;;;;;4.60;4.20;;;;;;;31.34;46.29;101485.26;1421306;100;21446;-52